sensor_id;sensor_type;location;lat;lon;timestamp;P1;durP1;ratioP1;P2;durP2;ratioP2
79624;SDS011;69101;45.534;10.218;2023-04-28T00:01:58;9.82;;;2.47;;
79624;SDS011;69101;45.534;10.218;2023-04-28T00:04:23;8.75;;;2.70;;
79624;SDS011;69101;45.534;10.218;2023-04-28T00:06:49;8.52;;;2.42;;
79624;SDS011;69101;45.534;10.218;2023-04-28T00:09:14;7.95;;;2.33;;
79624;SDS011;69101;45.534;10.218;2023-04-28T00:11:40;8.07;;;2.17;;
79624;SDS011;69101;45.534;10.218;2023-04-28T00:14:08;8.73;;;2.60;;
79624;SDS011;69101;45.534;10.218;2023-04-28T00:16:34;9.10;;;2.42;;
79624;SDS011;69101;45.534;10.218;2023-04-28T00:19:00;8.98;;;2.35;;
79624;SDS011;69101;45.534;10.218;2023-04-28T00:21:25;8.57;;;2.50;;
79624;SDS011;69101;45.534;10.218;2023-04-28T00:23:52;9.23;;;2.58;;
79624;SDS011;69101;45.534;10.218;2023-04-28T00:26:18;8.38;;;2.30;;
79624;SDS011;69101;45.534;10.218;2023-04-28T00:28:43;8.43;;;2.40;;
79624;SDS011;69101;45.534;10.218;2023-04-28T00:31:09;8.77;;;2.30;;
79624;SDS011;69101;45.534;10.218;2023-04-28T00:33:36;8.90;;;2.40;;
79624;SDS011;69101;45.534;10.218;2023-04-28T00:36:02;7.85;;;2.30;;
79624;SDS011;69101;45.534;10.218;2023-04-28T00:38:28;8.68;;;2.42;;
79624;SDS011;69101;45.534;10.218;2023-04-28T00:40:53;9.15;;;2.45;;
79624;SDS011;69101;45.534;10.218;2023-04-28T00:43:19;8.13;;;2.47;;
79624;SDS011;69101;45.534;10.218;2023-04-28T00:45:44;9.23;;;2.50;;
79624;SDS011;69101;45.534;10.218;2023-04-28T00:48:09;8.32;;;2.40;;
79624;SDS011;69101;45.534;10.218;2023-04-28T00:50:35;8.93;;;2.63;;
79624;SDS011;69101;45.534;10.218;2023-04-28T00:53:01;9.55;;;2.33;;
79624;SDS011;69101;45.534;10.218;2023-04-28T00:55:26;8.52;;;2.33;;
79624;SDS011;69101;45.534;10.218;2023-04-28T00:57:57;8.40;;;2.33;;
79624;SDS011;69101;45.534;10.218;2023-04-28T01:00:23;8.00;;;2.20;;
79624;SDS011;69101;45.534;10.218;2023-04-28T01:02:49;8.30;;;2.42;;
79624;SDS011;69101;45.534;10.218;2023-04-28T01:05:16;10.40;;;2.40;;
79624;SDS011;69101;45.534;10.218;2023-04-28T01:07:42;8.75;;;2.55;;
79624;SDS011;69101;45.534;10.218;2023-04-28T01:10:07;9.15;;;2.63;;
79624;SDS011;69101;45.534;10.218;2023-04-28T01:12:33;11.13;;;2.60;;
79624;SDS011;69101;45.534;10.218;2023-04-28T01:14:58;8.90;;;2.45;;
79624;SDS011;69101;45.534;10.218;2023-04-28T01:17:24;10.10;;;2.55;;
79624;SDS011;69101;45.534;10.218;2023-04-28T01:19:50;8.98;;;2.50;;
79624;SDS011;69101;45.534;10.218;2023-04-28T01:22:17;8.25;;;2.33;;
79624;SDS011;69101;45.534;10.218;2023-04-28T01:24:42;8.38;;;2.30;;
79624;SDS011;69101;45.534;10.218;2023-04-28T01:27:08;9.05;;;2.60;;
79624;SDS011;69101;45.534;10.218;2023-04-28T01:29:33;8.77;;;2.75;;
79624;SDS011;69101;45.534;10.218;2023-04-28T01:31:58;8.73;;;2.35;;
79624;SDS011;69101;45.534;10.218;2023-04-28T01:34:24;8.65;;;2.40;;
79624;SDS011;69101;45.534;10.218;2023-04-28T01:36:49;9.13;;;2.60;;
79624;SDS011;69101;45.534;10.218;2023-04-28T01:39:14;8.77;;;2.40;;
79624;SDS011;69101;45.534;10.218;2023-04-28T01:41:40;8.82;;;2.58;;
79624;SDS011;69101;45.534;10.218;2023-04-28T01:44:06;8.55;;;2.40;;
79624;SDS011;69101;45.534;10.218;2023-04-28T01:46:31;8.93;;;2.55;;
79624;SDS011;69101;45.534;10.218;2023-04-28T01:48:57;9.20;;;2.35;;
79624;SDS011;69101;45.534;10.218;2023-04-28T01:51:23;9.38;;;2.70;;
79624;SDS011;69101;45.534;10.218;2023-04-28T01:53:48;8.00;;;2.40;;
79624;SDS011;69101;45.534;10.218;2023-04-28T01:56:13;8.80;;;2.65;;
79624;SDS011;69101;45.534;10.218;2023-04-28T01:58:39;8.60;;;2.40;;
79624;SDS011;69101;45.534;10.218;2023-04-28T02:01:04;8.70;;;2.42;;
79624;SDS011;69101;45.534;10.218;2023-04-28T02:03:30;9.75;;;2.35;;
79624;SDS011;69101;45.534;10.218;2023-04-28T02:05:55;9.13;;;2.22;;
79624;SDS011;69101;45.534;10.218;2023-04-28T02:08:21;8.93;;;2.50;;
79624;SDS011;69101;45.534;10.218;2023-04-28T02:10:46;9.20;;;2.40;;
79624;SDS011;69101;45.534;10.218;2023-04-28T02:13:11;8.93;;;2.58;;
79624;SDS011;69101;45.534;10.218;2023-04-28T02:15:40;8.50;;;2.40;;
79624;SDS011;69101;45.534;10.218;2023-04-28T02:18:06;9.48;;;2.45;;
79624;SDS011;69101;45.534;10.218;2023-04-28T02:20:32;9.55;;;2.60;;
79624;SDS011;69101;45.534;10.218;2023-04-28T02:22:57;8.25;;;2.28;;
79624;SDS011;69101;45.534;10.218;2023-04-28T02:25:22;9.38;;;2.35;;
79624;SDS011;69101;45.534;10.218;2023-04-28T02:27:48;8.65;;;2.13;;
79624;SDS011;69101;45.534;10.218;2023-04-28T02:30:13;9.43;;;2.70;;
79624;SDS011;69101;45.534;10.218;2023-04-28T02:32:39;8.82;;;2.50;;
79624;SDS011;69101;45.534;10.218;2023-04-28T02:35:04;8.50;;;2.33;;
79624;SDS011;69101;45.534;10.218;2023-04-28T02:37:30;8.05;;;2.20;;
79624;SDS011;69101;45.534;10.218;2023-04-28T02:39:55;7.88;;;2.15;;
79624;SDS011;69101;45.534;10.218;2023-04-28T02:42:21;8.60;;;2.40;;
79624;SDS011;69101;45.534;10.218;2023-04-28T02:44:46;8.55;;;2.33;;
79624;SDS011;69101;45.534;10.218;2023-04-28T02:47:11;8.30;;;2.35;;
79624;SDS011;69101;45.534;10.218;2023-04-28T02:49:37;9.43;;;2.50;;
79624;SDS011;69101;45.534;10.218;2023-04-28T02:52:02;9.52;;;2.42;;
79624;SDS011;69101;45.534;10.218;2023-04-28T02:54:27;9.68;;;2.78;;
79624;SDS011;69101;45.534;10.218;2023-04-28T02:56:56;8.88;;;2.63;;
79624;SDS011;69101;45.534;10.218;2023-04-28T02:59:22;8.60;;;2.55;;
79624;SDS011;69101;45.534;10.218;2023-04-28T03:01:48;8.52;;;2.33;;
79624;SDS011;69101;45.534;10.218;2023-04-28T03:04:14;8.90;;;2.47;;
79624;SDS011;69101;45.534;10.218;2023-04-28T03:06:40;8.90;;;2.60;;
79624;SDS011;69101;45.534;10.218;2023-04-28T03:09:06;9.63;;;2.95;;
79624;SDS011;69101;45.534;10.218;2023-04-28T03:11:32;8.73;;;2.60;;
79624;SDS011;69101;45.534;10.218;2023-04-28T03:13:57;8.60;;;2.33;;
79624;SDS011;69101;45.534;10.218;2023-04-28T03:16:23;8.35;;;2.40;;
79624;SDS011;69101;45.534;10.218;2023-04-28T03:18:48;9.35;;;2.40;;
79624;SDS011;69101;45.534;10.218;2023-04-28T03:21:13;8.38;;;2.58;;
79624;SDS011;69101;45.534;10.218;2023-04-28T03:23:39;9.10;;;2.50;;
79624;SDS011;69101;45.534;10.218;2023-04-28T03:26:05;9.40;;;2.47;;
79624;SDS011;69101;45.534;10.218;2023-04-28T03:28:31;9.35;;;2.83;;
79624;SDS011;69101;45.534;10.218;2023-04-28T03:30:57;9.85;;;2.67;;
79624;SDS011;69101;45.534;10.218;2023-04-28T03:33:22;8.32;;;2.40;;
79624;SDS011;69101;45.534;10.218;2023-04-28T03:35:47;9.70;;;2.95;;
79624;SDS011;69101;45.534;10.218;2023-04-28T03:38:13;9.45;;;2.85;;
79624;SDS011;69101;45.534;10.218;2023-04-28T03:40:38;9.68;;;2.85;;
79624;SDS011;69101;45.534;10.218;2023-04-28T03:43:04;9.73;;;2.90;;
79624;SDS011;69101;45.534;10.218;2023-04-28T03:45:29;9.25;;;2.40;;
79624;SDS011;69101;45.534;10.218;2023-04-28T03:47:55;8.98;;;2.67;;
79624;SDS011;69101;45.534;10.218;2023-04-28T03:50:20;9.25;;;2.63;;
79624;SDS011;69101;45.534;10.218;2023-04-28T03:52:46;8.93;;;2.45;;
79624;SDS011;69101;45.534;10.218;2023-04-28T03:55:11;9.30;;;2.50;;
79624;SDS011;69101;45.534;10.218;2023-04-28T03:57:37;9.43;;;2.90;;
79624;SDS011;69101;45.534;10.218;2023-04-28T04:00:02;8.70;;;2.45;;
79624;SDS011;69101;45.534;10.218;2023-04-28T04:02:29;8.52;;;2.60;;
79624;SDS011;69101;45.534;10.218;2023-04-28T04:04:54;9.90;;;3.00;;
79624;SDS011;69101;45.534;10.218;2023-04-28T04:07:20;8.73;;;2.53;;
79624;SDS011;69101;45.534;10.218;2023-04-28T04:09:46;9.32;;;2.45;;
79624;SDS011;69101;45.534;10.218;2023-04-28T04:12:11;10.05;;;2.72;;
79624;SDS011;69101;45.534;10.218;2023-04-28T04:14:37;8.57;;;2.53;;
79624;SDS011;69101;45.534;10.218;2023-04-28T04:17:02;9.88;;;2.60;;
79624;SDS011;69101;45.534;10.218;2023-04-28T04:19:27;8.95;;;2.40;;
79624;SDS011;69101;45.534;10.218;2023-04-28T04:21:53;9.18;;;2.58;;
79624;SDS011;69101;45.534;10.218;2023-04-28T04:24:18;10.20;;;2.72;;
79624;SDS011;69101;45.534;10.218;2023-04-28T04:26:43;8.32;;;2.33;;
79624;SDS011;69101;45.534;10.218;2023-04-28T04:29:09;8.38;;;2.30;;
79624;SDS011;69101;45.534;10.218;2023-04-28T04:31:34;9.27;;;2.63;;
79624;SDS011;69101;45.534;10.218;2023-04-28T04:34:00;9.32;;;2.80;;
79624;SDS011;69101;45.534;10.218;2023-04-28T04:36:25;9.20;;;2.50;;
79624;SDS011;69101;45.534;10.218;2023-04-28T04:38:51;9.90;;;2.55;;
79624;SDS011;69101;45.534;10.218;2023-04-28T04:41:19;8.55;;;2.53;;
79624;SDS011;69101;45.534;10.218;2023-04-28T04:43:45;9.00;;;2.40;;
79624;SDS011;69101;45.534;10.218;2023-04-28T04:46:10;10.73;;;2.70;;
79624;SDS011;69101;45.534;10.218;2023-04-28T04:48:35;8.55;;;2.50;;
79624;SDS011;69101;45.534;10.218;2023-04-28T04:51:01;9.15;;;2.63;;
79624;SDS011;69101;45.534;10.218;2023-04-28T04:53:26;10.18;;;2.60;;
79624;SDS011;69101;45.534;10.218;2023-04-28T04:55:51;9.57;;;2.60;;
79624;SDS011;69101;45.534;10.218;2023-04-28T04:58:17;8.50;;;2.53;;
79624;SDS011;69101;45.534;10.218;2023-04-28T05:00:42;8.77;;;2.42;;
79624;SDS011;69101;45.534;10.218;2023-04-28T05:03:08;8.98;;;2.50;;
79624;SDS011;69101;45.534;10.218;2023-04-28T05:05:33;9.70;;;2.55;;
79624;SDS011;69101;45.534;10.218;2023-04-28T05:07:59;9.48;;;2.67;;
79624;SDS011;69101;45.534;10.218;2023-04-28T05:10:24;10.05;;;2.60;;
79624;SDS011;69101;45.534;10.218;2023-04-28T05:12:50;8.60;;;2.60;;
79624;SDS011;69101;45.534;10.218;2023-04-28T05:15:15;8.68;;;2.22;;
79624;SDS011;69101;45.534;10.218;2023-04-28T05:17:40;10.07;;;2.38;;
79624;SDS011;69101;45.534;10.218;2023-04-28T05:20:06;9.50;;;2.40;;
79624;SDS011;69101;45.534;10.218;2023-04-28T05:22:32;9.40;;;2.53;;
79624;SDS011;69101;45.534;10.218;2023-04-28T05:24:57;9.57;;;2.40;;
79624;SDS011;69101;45.534;10.218;2023-04-28T05:27:23;9.15;;;2.45;;
79624;SDS011;69101;45.534;10.218;2023-04-28T05:29:48;8.70;;;2.47;;
79624;SDS011;69101;45.534;10.218;2023-04-28T05:32:13;8.73;;;2.30;;
79624;SDS011;69101;45.534;10.218;2023-04-28T05:34:39;9.15;;;2.67;;
79624;SDS011;69101;45.534;10.218;2023-04-28T05:37:04;9.63;;;2.35;;
79624;SDS011;69101;45.534;10.218;2023-04-28T05:39:29;9.30;;;2.55;;
79624;SDS011;69101;45.534;10.218;2023-04-28T05:41:55;8.40;;;2.28;;
79624;SDS011;69101;45.534;10.218;2023-04-28T05:44:22;7.93;;;2.13;;
79624;SDS011;69101;45.534;10.218;2023-04-28T05:46:47;9.30;;;2.03;;
79624;SDS011;69101;45.534;10.218;2023-04-28T05:49:13;10.07;;;2.60;;
79624;SDS011;69101;45.534;10.218;2023-04-28T05:51:38;8.52;;;2.40;;
79624;SDS011;69101;45.534;10.218;2023-04-28T05:54:04;9.18;;;2.50;;
79624;SDS011;69101;45.534;10.218;2023-04-28T05:56:29;9.88;;;2.40;;
79624;SDS011;69101;45.534;10.218;2023-04-28T05:58:54;8.73;;;2.35;;
79624;SDS011;69101;45.534;10.218;2023-04-28T06:01:21;6.95;;;1.90;;
79624;SDS011;69101;45.534;10.218;2023-04-28T06:03:46;8.25;;;2.10;;
79624;SDS011;69101;45.534;10.218;2023-04-28T06:06:12;7.93;;;2.00;;
79624;SDS011;69101;45.534;10.218;2023-04-28T06:08:37;9.50;;;2.20;;
79624;SDS011;69101;45.534;10.218;2023-04-28T06:11:03;7.45;;;1.92;;
79624;SDS011;69101;45.534;10.218;2023-04-28T06:13:29;8.15;;;2.10;;
79624;SDS011;69101;45.534;10.218;2023-04-28T06:15:54;7.13;;;1.80;;
79624;SDS011;69101;45.534;10.218;2023-04-28T06:18:20;9.32;;;2.22;;
79624;SDS011;69101;45.534;10.218;2023-04-28T06:20:47;8.68;;;2.00;;
79624;SDS011;69101;45.534;10.218;2023-04-28T06:23:12;8.90;;;2.22;;
79624;SDS011;69101;45.534;10.218;2023-04-28T06:25:38;8.65;;;2.05;;
79624;SDS011;69101;45.534;10.218;2023-04-28T06:28:03;8.88;;;2.20;;
79624;SDS011;69101;45.534;10.218;2023-04-28T06:30:30;8.93;;;2.50;;
79624;SDS011;69101;45.534;10.218;2023-04-28T06:32:55;10.18;;;2.42;;
79624;SDS011;69101;45.534;10.218;2023-04-28T06:35:21;9.85;;;2.30;;
79624;SDS011;69101;45.534;10.218;2023-04-28T06:37:47;8.40;;;2.15;;
79624;SDS011;69101;45.534;10.218;2023-04-28T06:40:12;7.85;;;2.28;;
79624;SDS011;69101;45.534;10.218;2023-04-28T06:42:38;9.60;;;2.45;;
79624;SDS011;69101;45.534;10.218;2023-04-28T06:45:03;9.90;;;2.55;;
79624;SDS011;69101;45.534;10.218;2023-04-28T06:47:29;9.95;;;2.50;;
79624;SDS011;69101;45.534;10.218;2023-04-28T06:49:54;8.70;;;2.33;;
79624;SDS011;69101;45.534;10.218;2023-04-28T06:52:20;9.55;;;2.63;;
79624;SDS011;69101;45.534;10.218;2023-04-28T06:54:48;8.75;;;2.47;;
79624;SDS011;69101;45.534;10.218;2023-04-28T06:57:15;10.15;;;2.45;;
79624;SDS011;69101;45.534;10.218;2023-04-28T06:59:41;9.52;;;2.55;;
79624;SDS011;69101;45.534;10.218;2023-04-28T07:02:08;8.93;;;2.72;;
79624;SDS011;69101;45.534;10.218;2023-04-28T07:04:34;9.57;;;2.88;;
79624;SDS011;69101;45.534;10.218;2023-04-28T07:07:00;10.50;;;2.63;;
79624;SDS011;69101;45.534;10.218;2023-04-28T07:09:25;10.15;;;2.20;;
79624;SDS011;69101;45.534;10.218;2023-04-28T07:11:50;8.02;;;2.40;;
79624;SDS011;69101;45.534;10.218;2023-04-28T07:14:16;10.18;;;2.85;;
79624;SDS011;69101;45.534;10.218;2023-04-28T07:16:42;19.13;;;7.93;;
79624;SDS011;69101;45.534;10.218;2023-04-28T07:19:07;16.30;;;6.43;;
79624;SDS011;69101;45.534;10.218;2023-04-28T07:21:32;17.85;;;7.32;;
79624;SDS011;69101;45.534;10.218;2023-04-28T07:23:58;18.45;;;7.07;;
79624;SDS011;69101;45.534;10.218;2023-04-28T07:26:24;17.55;;;7.10;;
79624;SDS011;69101;45.534;10.218;2023-04-28T07:28:50;17.48;;;7.40;;
79624;SDS011;69101;45.534;10.218;2023-04-28T07:31:16;19.33;;;7.40;;
79624;SDS011;69101;45.534;10.218;2023-04-28T07:33:41;20.13;;;8.38;;
79624;SDS011;69101;45.534;10.218;2023-04-28T07:36:07;21.42;;;7.40;;
79624;SDS011;69101;45.534;10.218;2023-04-28T07:38:35;17.95;;;8.20;;
79624;SDS011;69101;45.534;10.218;2023-04-28T07:41:01;16.45;;;6.72;;
79624;SDS011;69101;45.534;10.218;2023-04-28T07:43:28;16.33;;;5.20;;
79624;SDS011;69101;45.534;10.218;2023-04-28T07:45:54;16.17;;;5.43;;
79624;SDS011;69101;45.534;10.218;2023-04-28T07:48:19;15.32;;;5.53;;
79624;SDS011;69101;45.534;10.218;2023-04-28T07:50:44;15.65;;;6.57;;
79624;SDS011;69101;45.534;10.218;2023-04-28T07:53:10;18.02;;;6.28;;
79624;SDS011;69101;45.534;10.218;2023-04-28T07:55:35;19.95;;;6.10;;
79624;SDS011;69101;45.534;10.218;2023-04-28T07:58:01;14.82;;;5.53;;
79624;SDS011;69101;45.534;10.218;2023-04-28T08:00:27;14.70;;;5.55;;
79624;SDS011;69101;45.534;10.218;2023-04-28T08:02:52;15.05;;;5.32;;
79624;SDS011;69101;45.534;10.218;2023-04-28T08:05:18;19.55;;;5.43;;
79624;SDS011;69101;45.534;10.218;2023-04-28T08:07:43;16.67;;;5.10;;
79624;SDS011;69101;45.534;10.218;2023-04-28T08:10:09;17.08;;;4.50;;
79624;SDS011;69101;45.534;10.218;2023-04-28T08:12:35;17.08;;;6.10;;
79624;SDS011;69101;45.534;10.218;2023-04-28T08:15:01;14.98;;;5.20;;
79624;SDS011;69101;45.534;10.218;2023-04-28T08:17:26;14.10;;;4.95;;
79624;SDS011;69101;45.534;10.218;2023-04-28T08:19:51;17.15;;;4.82;;
79624;SDS011;69101;45.534;10.218;2023-04-28T08:22:17;22.45;;;12.00;;
79624;SDS011;69101;45.534;10.218;2023-04-28T08:24:42;16.88;;;6.13;;
79624;SDS011;69101;45.534;10.218;2023-04-28T08:27:07;15.40;;;5.50;;
79624;SDS011;69101;45.534;10.218;2023-04-28T08:29:33;13.27;;;4.82;;
79624;SDS011;69101;45.534;10.218;2023-04-28T08:31:58;14.23;;;4.80;;
79624;SDS011;69101;45.534;10.218;2023-04-28T08:34:25;13.70;;;4.53;;
79624;SDS011;69101;45.534;10.218;2023-04-28T08:36:51;11.50;;;4.22;;
79624;SDS011;69101;45.534;10.218;2023-04-28T08:39:17;12.52;;;4.53;;
79624;SDS011;69101;45.534;10.218;2023-04-28T08:41:44;14.35;;;4.72;;
79624;SDS011;69101;45.534;10.218;2023-04-28T08:44:10;12.48;;;4.18;;
79624;SDS011;69101;45.534;10.218;2023-04-28T08:46:45;11.35;;;4.10;;
79624;SDS011;69101;45.534;10.218;2023-04-28T08:49:14;14.18;;;3.95;;
79624;SDS011;69101;45.534;10.218;2023-04-28T08:51:58;13.32;;;4.28;;
79624;SDS011;69101;45.534;10.218;2023-04-28T08:54:29;13.15;;;4.63;;
79624;SDS011;69101;45.534;10.218;2023-04-28T08:56:56;12.73;;;4.68;;
79624;SDS011;69101;45.534;10.218;2023-04-28T08:59:22;12.50;;;4.28;;
79624;SDS011;69101;45.534;10.218;2023-04-28T09:01:47;13.02;;;4.50;;
79624;SDS011;69101;45.534;10.218;2023-04-28T09:04:15;12.40;;;3.83;;
79624;SDS011;69101;45.534;10.218;2023-04-28T09:06:41;13.07;;;4.03;;
79624;SDS011;69101;45.534;10.218;2023-04-28T09:09:23;13.18;;;4.05;;
79624;SDS011;69101;45.534;10.218;2023-04-28T09:11:55;12.80;;;3.75;;
79624;SDS011;69101;45.534;10.218;2023-04-28T09:14:23;13.40;;;4.18;;
79624;SDS011;69101;45.534;10.218;2023-04-28T09:16:52;11.63;;;3.78;;
79624;SDS011;69101;45.534;10.218;2023-04-28T09:19:18;10.23;;;3.35;;
79624;SDS011;69101;45.534;10.218;2023-04-28T09:21:51;12.05;;;3.47;;
79624;SDS011;69101;45.534;10.218;2023-04-28T09:24:51;14.73;;;6.20;;
79624;SDS011;69101;45.534;10.218;2023-04-28T09:27:11;15.05;;;5.15;;
79624;SDS011;69101;45.534;10.218;2023-04-28T09:29:37;12.45;;;4.55;;
79624;SDS011;69101;45.534;10.218;2023-04-28T09:32:24;11.57;;;4.32;;
79624;SDS011;69101;45.534;10.218;2023-04-28T09:34:52;11.32;;;4.00;;
79624;SDS011;69101;45.534;10.218;2023-04-28T09:37:21;12.25;;;3.80;;
79624;SDS011;69101;45.534;10.218;2023-04-28T09:39:51;11.32;;;3.88;;
79624;SDS011;69101;45.534;10.218;2023-04-28T09:42:34;13.13;;;4.20;;
79624;SDS011;69101;45.534;10.218;2023-04-28T09:45:01;12.65;;;4.00;;
79624;SDS011;69101;45.534;10.218;2023-04-28T09:47:45;11.57;;;3.83;;
79624;SDS011;69101;45.534;10.218;2023-04-28T09:50:12;11.60;;;3.67;;
79624;SDS011;69101;45.534;10.218;2023-04-28T09:52:41;12.82;;;3.60;;
79624;SDS011;69101;45.534;10.218;2023-04-28T09:55:09;11.55;;;4.13;;
79624;SDS011;69101;45.534;10.218;2023-04-28T09:57:36;16.42;;;3.83;;
79624;SDS011;69101;45.534;10.218;2023-04-28T10:00:03;11.85;;;4.10;;
79624;SDS011;69101;45.534;10.218;2023-04-28T10:02:30;11.00;;;3.78;;
79624;SDS011;69101;45.534;10.218;2023-04-28T10:04:56;11.85;;;4.00;;
79624;SDS011;69101;45.534;10.218;2023-04-28T10:07:22;12.40;;;4.13;;
79624;SDS011;69101;45.534;10.218;2023-04-28T10:09:47;10.85;;;3.70;;
79624;SDS011;69101;45.534;10.218;2023-04-28T10:12:15;11.25;;;3.60;;
79624;SDS011;69101;45.534;10.218;2023-04-28T10:14:43;11.27;;;3.83;;
79624;SDS011;69101;45.534;10.218;2023-04-28T10:17:14;11.60;;;3.72;;
79624;SDS011;69101;45.534;10.218;2023-04-28T10:19:44;12.50;;;3.88;;
79624;SDS011;69101;45.534;10.218;2023-04-28T10:27:46;11.18;;;3.65;;
79624;SDS011;69101;45.534;10.218;2023-04-28T10:30:16;12.07;;;3.70;;
79624;SDS011;69101;45.534;10.218;2023-04-28T10:32:46;10.50;;;3.65;;
79624;SDS011;69101;45.534;10.218;2023-04-28T10:40:35;14.55;;;3.83;;
79624;SDS011;69101;45.534;10.218;2023-04-28T10:43:04;11.40;;;3.80;;
79624;SDS011;69101;45.534;10.218;2023-04-28T10:56:09;10.60;;;3.33;;
79624;SDS011;69101;45.534;10.218;2023-04-28T10:58:43;10.90;;;3.33;;
79624;SDS011;69101;45.534;10.218;2023-04-28T11:01:34;10.88;;;3.80;;
79624;SDS011;69101;45.534;10.218;2023-04-28T11:04:07;10.40;;;3.58;;
79624;SDS011;69101;45.534;10.218;2023-04-28T11:14:30;12.65;;;3.40;;
79624;SDS011;69101;45.534;10.218;2023-04-28T11:19:28;10.48;;;2.88;;
79624;SDS011;69101;45.534;10.218;2023-04-28T11:21:56;9.60;;;3.10;;
79624;SDS011;69101;45.534;10.218;2023-04-28T11:24:23;11.07;;;3.40;;
79624;SDS011;69101;45.534;10.218;2023-04-28T11:26:55;11.10;;;3.80;;
79624;SDS011;69101;45.534;10.218;2023-04-28T11:32:00;10.38;;;3.30;;
79624;SDS011;69101;45.534;10.218;2023-04-28T11:34:26;9.98;;;3.08;;
79624;SDS011;69101;45.534;10.218;2023-04-28T11:36:52;10.57;;;3.55;;
79624;SDS011;69101;45.534;10.218;2023-04-28T11:39:24;10.40;;;3.50;;
79624;SDS011;69101;45.534;10.218;2023-04-28T11:41:52;10.55;;;3.35;;
79624;SDS011;69101;45.534;10.218;2023-04-28T11:44:19;10.07;;;3.30;;
79624;SDS011;69101;45.534;10.218;2023-04-28T11:46:50;9.93;;;3.00;;
79624;SDS011;69101;45.534;10.218;2023-04-28T11:49:19;11.20;;;3.90;;
79624;SDS011;69101;45.534;10.218;2023-04-28T11:51:46;11.00;;;3.45;;
79624;SDS011;69101;45.534;10.218;2023-04-28T11:54:15;9.90;;;3.08;;
79624;SDS011;69101;45.534;10.218;2023-04-28T11:56:45;10.18;;;3.38;;
79624;SDS011;69101;45.534;10.218;2023-04-28T11:59:11;9.70;;;3.10;;
79624;SDS011;69101;45.534;10.218;2023-04-28T12:01:47;10.00;;;3.03;;
79624;SDS011;69101;45.534;10.218;2023-04-28T12:04:14;9.60;;;3.08;;
79624;SDS011;69101;45.534;10.218;2023-04-28T12:07:00;12.10;;;3.88;;
79624;SDS011;69101;45.534;10.218;2023-04-28T12:09:27;9.73;;;2.97;;
79624;SDS011;69101;45.534;10.218;2023-04-28T12:11:54;10.43;;;2.85;;
79624;SDS011;69101;45.534;10.218;2023-04-28T12:14:26;10.60;;;3.28;;
79624;SDS011;69101;45.534;10.218;2023-04-28T12:16:52;9.95;;;3.55;;
79624;SDS011;69101;45.534;10.218;2023-04-28T12:19:17;10.05;;;2.83;;
79624;SDS011;69101;45.534;10.218;2023-04-28T12:21:57;9.65;;;2.72;;
79624;SDS011;69101;45.534;10.218;2023-04-28T12:26:52;10.50;;;3.45;;
79624;SDS011;69101;45.534;10.218;2023-04-28T12:29:34;10.23;;;2.97;;
79624;SDS011;69101;45.534;10.218;2023-04-28T12:32:06;10.43;;;2.80;;
79624;SDS011;69101;45.534;10.218;2023-04-28T12:34:33;9.15;;;2.72;;
79624;SDS011;69101;45.534;10.218;2023-04-28T12:36:59;12.48;;;4.65;;
79624;SDS011;69101;45.534;10.218;2023-04-28T12:39:25;11.30;;;3.13;;
79624;SDS011;69101;45.534;10.218;2023-04-28T12:41:51;8.55;;;2.78;;
79624;SDS011;69101;45.534;10.218;2023-04-28T12:44:19;11.60;;;5.45;;
79624;SDS011;69101;45.534;10.218;2023-04-28T12:46:46;12.55;;;5.10;;
79624;SDS011;69101;45.534;10.218;2023-04-28T12:49:12;10.23;;;3.70;;
79624;SDS011;69101;45.534;10.218;2023-04-28T12:51:37;11.40;;;3.70;;
79624;SDS011;69101;45.534;10.218;2023-04-28T12:54:03;10.00;;;3.10;;
79624;SDS011;69101;45.534;10.218;2023-04-28T12:56:29;11.40;;;4.03;;
79624;SDS011;69101;45.534;10.218;2023-04-28T12:58:54;9.55;;;3.10;;
79624;SDS011;69101;45.534;10.218;2023-04-28T13:01:20;11.35;;;4.07;;
79624;SDS011;69101;45.534;10.218;2023-04-28T13:03:45;10.63;;;3.65;;
79624;SDS011;69101;45.534;10.218;2023-04-28T13:06:12;10.43;;;3.78;;
79624;SDS011;69101;45.534;10.218;2023-04-28T13:08:37;11.10;;;3.63;;
79624;SDS011;69101;45.534;10.218;2023-04-28T13:11:03;10.40;;;3.42;;
79624;SDS011;69101;45.534;10.218;2023-04-28T13:13:29;13.68;;;5.85;;
79624;SDS011;69101;45.534;10.218;2023-04-28T13:15:55;14.13;;;7.00;;
79624;SDS011;69101;45.534;10.218;2023-04-28T13:18:20;14.93;;;5.68;;
79624;SDS011;69101;45.534;10.218;2023-04-28T13:20:47;13.05;;;4.60;;
79624;SDS011;69101;45.534;10.218;2023-04-28T13:23:12;12.93;;;4.13;;
79624;SDS011;69101;45.534;10.218;2023-04-28T13:25:39;13.00;;;4.18;;
79624;SDS011;69101;45.534;10.218;2023-04-28T13:28:04;12.07;;;4.50;;
79624;SDS011;69101;45.534;10.218;2023-04-28T13:30:29;11.02;;;4.18;;
79624;SDS011;69101;45.534;10.218;2023-04-28T13:32:55;11.63;;;4.80;;
79624;SDS011;69101;45.534;10.218;2023-04-28T13:35:21;11.98;;;4.35;;
79624;SDS011;69101;45.534;10.218;2023-04-28T13:37:46;11.90;;;4.10;;
79624;SDS011;69101;45.534;10.218;2023-04-28T13:40:12;10.77;;;4.28;;
79624;SDS011;69101;45.534;10.218;2023-04-28T13:42:37;12.13;;;4.80;;
79624;SDS011;69101;45.534;10.218;2023-04-28T13:45:03;12.93;;;5.78;;
79624;SDS011;69101;45.534;10.218;2023-04-28T13:47:29;10.95;;;4.68;;
79624;SDS011;69101;45.534;10.218;2023-04-28T13:49:56;10.57;;;4.03;;
79624;SDS011;69101;45.534;10.218;2023-04-28T13:52:22;10.80;;;3.95;;
79624;SDS011;69101;45.534;10.218;2023-04-28T13:54:47;9.98;;;3.55;;
79624;SDS011;69101;45.534;10.218;2023-04-28T13:57:13;11.48;;;3.83;;
79624;SDS011;69101;45.534;10.218;2023-04-28T13:59:38;10.55;;;3.38;;
79624;SDS011;69101;45.534;10.218;2023-04-28T14:02:04;10.32;;;3.45;;
79624;SDS011;69101;45.534;10.218;2023-04-28T14:04:29;9.68;;;3.78;;
79624;SDS011;69101;45.534;10.218;2023-04-28T14:06:55;10.80;;;3.40;;
79624;SDS011;69101;45.534;10.218;2023-04-28T14:09:20;10.82;;;3.60;;
79624;SDS011;69101;45.534;10.218;2023-04-28T14:11:45;10.60;;;3.28;;
79624;SDS011;69101;45.534;10.218;2023-04-28T14:14:11;11.43;;;3.30;;
79624;SDS011;69101;45.534;10.218;2023-04-28T14:16:36;10.25;;;3.40;;
79624;SDS011;69101;45.534;10.218;2023-04-28T14:19:02;9.60;;;3.35;;
79624;SDS011;69101;45.534;10.218;2023-04-28T14:21:27;10.70;;;3.40;;
79624;SDS011;69101;45.534;10.218;2023-04-28T14:23:52;9.75;;;3.00;;
79624;SDS011;69101;45.534;10.218;2023-04-28T14:26:18;10.23;;;3.55;;
79624;SDS011;69101;45.534;10.218;2023-04-28T14:28:43;9.68;;;2.92;;
79624;SDS011;69101;45.534;10.218;2023-04-28T14:31:09;9.50;;;3.00;;
79624;SDS011;69101;45.534;10.218;2023-04-28T14:33:35;11.13;;;3.35;;
79624;SDS011;69101;45.534;10.218;2023-04-28T14:36:00;10.35;;;3.25;;
79624;SDS011;69101;45.534;10.218;2023-04-28T14:38:26;9.60;;;2.90;;
79624;SDS011;69101;45.534;10.218;2023-04-28T14:40:54;9.98;;;3.10;;
79624;SDS011;69101;45.534;10.218;2023-04-28T14:43:19;10.50;;;3.25;;
79624;SDS011;69101;45.534;10.218;2023-04-28T14:45:45;9.18;;;3.00;;
79624;SDS011;69101;45.534;10.218;2023-04-28T14:48:10;10.52;;;3.28;;
79624;SDS011;69101;45.534;10.218;2023-04-28T14:50:38;10.23;;;3.17;;
79624;SDS011;69101;45.534;10.218;2023-04-28T14:53:04;9.07;;;2.92;;
79624;SDS011;69101;45.534;10.218;2023-04-28T14:55:31;9.95;;;3.15;;
79624;SDS011;69101;45.534;10.218;2023-04-28T14:57:57;9.32;;;2.85;;
79624;SDS011;69101;45.534;10.218;2023-04-28T15:00:22;10.10;;;3.08;;
79624;SDS011;69101;45.534;10.218;2023-04-28T15:02:48;10.40;;;2.90;;